sensor_id;sensor_type;location;lat;lon;timestamp;P1;durP1;ratioP1;P2;durP2;ratioP2
79454;SDS011;68900;52.134;5.420;2024-03-17T00:02:48;10.88;;;4.15;;
79454;SDS011;68900;52.134;5.420;2024-03-17T00:05:13;10.48;;;3.75;;
79454;SDS011;68900;52.134;5.420;2024-03-17T00:13:35;8.85;;;3.40;;
79454;SDS011;68900;52.134;5.420;2024-03-17T00:16:04;8.30;;;3.78;;
79454;SDS011;68900;52.134;5.420;2024-03-17T00:18:33;9.68;;;3.88;;
79454;SDS011;68900;52.134;5.420;2024-03-17T00:23:33;8.35;;;3.53;;
79454;SDS011;68900;52.134;5.420;2024-03-17T00:26:07;10.00;;;3.50;;
79454;SDS011;68900;52.134;5.420;2024-03-17T00:28:33;15.75;;;4.80;;
79454;SDS011;68900;52.134;5.420;2024-03-17T00:31:13;9.90;;;4.18;;
79454;SDS011;68900;52.134;5.420;2024-03-17T00:39:26;9.35;;;4.20;;
79454;SDS011;68900;52.134;5.420;2024-03-17T00:50:56;10.68;;;4.32;;
79454;SDS011;68900;52.134;5.420;2024-03-17T00:57:34;11.93;;;4.53;;
79454;SDS011;68900;52.134;5.420;2024-03-17T01:00:25;12.35;;;4.60;;
79454;SDS011;68900;52.134;5.420;2024-03-17T01:03:20;10.38;;;4.20;;
79454;SDS011;68900;52.134;5.420;2024-03-17T01:06:03;10.55;;;4.68;;
79454;SDS011;68900;52.134;5.420;2024-03-17T01:08:31;10.32;;;4.40;;
79454;SDS011;68900;52.134;5.420;2024-03-17T01:11:14;10.63;;;3.92;;
79454;SDS011;68900;52.134;5.420;2024-03-17T01:13:56;8.23;;;3.30;;
79454;SDS011;68900;52.134;5.420;2024-03-17T01:16:38;12.60;;;4.63;;
79454;SDS011;68900;52.134;5.420;2024-03-17T01:19:08;8.07;;;3.78;;
79454;SDS011;68900;52.134;5.420;2024-03-17T01:21:55;9.55;;;3.58;;
79454;SDS011;68900;52.134;5.420;2024-03-17T01:24:36;9.23;;;3.38;;
79454;SDS011;68900;52.134;5.420;2024-03-17T01:27:17;9.73;;;3.55;;
79454;SDS011;68900;52.134;5.420;2024-03-17T01:29:57;9.43;;;3.50;;
79454;SDS011;68900;52.134;5.420;2024-03-17T01:32:38;8.70;;;4.00;;
79454;SDS011;68900;52.134;5.420;2024-03-17T01:35:19;9.38;;;3.83;;
79454;SDS011;68900;52.134;5.420;2024-03-17T01:38:00;10.38;;;3.72;;
79454;SDS011;68900;52.134;5.420;2024-03-17T01:46:05;9.43;;;3.50;;
79454;SDS011;68900;52.134;5.420;2024-03-17T01:48:35;13.15;;;4.88;;
79454;SDS011;68900;52.134;5.420;2024-03-17T01:51:01;9.43;;;3.58;;
79454;SDS011;68900;52.134;5.420;2024-03-17T01:53:29;10.63;;;3.42;;
79454;SDS011;68900;52.134;5.420;2024-03-17T01:56:05;10.00;;;3.60;;
79454;SDS011;68900;52.134;5.420;2024-03-17T01:58:35;12.63;;;3.75;;
79454;SDS011;68900;52.134;5.420;2024-03-17T02:01:16;10.57;;;3.97;;
79454;SDS011;68900;52.134;5.420;2024-03-17T02:03:57;8.50;;;3.67;;
79454;SDS011;68900;52.134;5.420;2024-03-17T02:06:38;9.23;;;4.25;;
79454;SDS011;68900;52.134;5.420;2024-03-17T02:09:22;10.68;;;4.00;;
79454;SDS011;68900;52.134;5.420;2024-03-17T02:12:02;9.82;;;3.90;;
79454;SDS011;68900;52.134;5.420;2024-03-17T02:14:43;8.35;;;4.15;;
79454;SDS011;68900;52.134;5.420;2024-03-17T02:17:24;8.85;;;3.90;;
79454;SDS011;68900;52.134;5.420;2024-03-17T02:20:10;13.05;;;3.75;;
79454;SDS011;68900;52.134;5.420;2024-03-17T02:22:59;9.38;;;4.78;;
79454;SDS011;68900;52.134;5.420;2024-03-17T02:25:39;12.45;;;4.47;;
79454;SDS011;68900;52.134;5.420;2024-03-17T02:32:17;12.10;;;4.03;;
79454;SDS011;68900;52.134;5.420;2024-03-17T02:34:47;10.60;;;5.07;;
79454;SDS011;68900;52.134;5.420;2024-03-17T02:37:13;12.07;;;4.10;;
79454;SDS011;68900;52.134;5.420;2024-03-17T02:39:54;12.05;;;4.55;;
79454;SDS011;68900;52.134;5.420;2024-03-17T02:42:39;11.63;;;4.70;;
79454;SDS011;68900;52.134;5.420;2024-03-17T02:45:07;11.27;;;4.63;;
79454;SDS011;68900;52.134;5.420;2024-03-17T02:47:52;8.98;;;4.53;;
79454;SDS011;68900;52.134;5.420;2024-03-17T02:50:32;12.13;;;5.00;;
79454;SDS011;68900;52.134;5.420;2024-03-17T02:53:13;13.45;;;5.13;;
79454;SDS011;68900;52.134;5.420;2024-03-17T02:55:41;11.38;;;5.13;;
79454;SDS011;68900;52.134;5.420;2024-03-17T02:58:22;9.50;;;4.15;;
79454;SDS011;68900;52.134;5.420;2024-03-17T03:01:03;10.52;;;5.00;;
79454;SDS011;68900;52.134;5.420;2024-03-17T03:03:44;11.63;;;4.85;;
79454;SDS011;68900;52.134;5.420;2024-03-17T03:06:25;10.98;;;5.00;;
79454;SDS011;68900;52.134;5.420;2024-03-17T03:09:06;9.00;;;4.50;;
79454;SDS011;68900;52.134;5.420;2024-03-17T03:11:52;10.68;;;4.15;;
79454;SDS011;68900;52.134;5.420;2024-03-17T03:14:34;12.27;;;4.60;;
79454;SDS011;68900;52.134;5.420;2024-03-17T03:19:54;9.30;;;4.22;;
79454;SDS011;68900;52.134;5.420;2024-03-17T03:22:36;11.48;;;4.45;;
79454;SDS011;68900;52.134;5.420;2024-03-17T03:25:19;10.57;;;4.18;;
79454;SDS011;68900;52.134;5.420;2024-03-17T03:27:45;13.00;;;5.03;;
79454;SDS011;68900;52.134;5.420;2024-03-17T03:30:26;9.95;;;4.35;;
79454;SDS011;68900;52.134;5.420;2024-03-17T03:33:07;8.68;;;4.40;;
79454;SDS011;68900;52.134;5.420;2024-03-17T03:35:48;11.15;;;4.72;;
79454;SDS011;68900;52.134;5.420;2024-03-17T03:38:14;12.52;;;5.15;;
79454;SDS011;68900;52.134;5.420;2024-03-17T03:40:55;9.70;;;5.05;;
79454;SDS011;68900;52.134;5.420;2024-03-17T03:43:37;11.73;;;4.57;;
79454;SDS011;68900;52.134;5.420;2024-03-17T03:46:27;9.18;;;4.03;;
79454;SDS011;68900;52.134;5.420;2024-03-17T03:49:09;9.88;;;4.50;;
79454;SDS011;68900;52.134;5.420;2024-03-17T03:51:35;10.73;;;5.10;;
79454;SDS011;68900;52.134;5.420;2024-03-17T03:54:16;10.27;;;4.57;;
79454;SDS011;68900;52.134;5.420;2024-03-17T03:57:02;8.50;;;4.18;;
79454;SDS011;68900;52.134;5.420;2024-03-17T03:59:46;11.55;;;4.50;;
79454;SDS011;68900;52.134;5.420;2024-03-17T04:02:12;9.48;;;4.35;;
79454;SDS011;68900;52.134;5.420;2024-03-17T04:04:45;12.68;;;4.38;;
79454;SDS011;68900;52.134;5.420;2024-03-17T04:07:14;9.40;;;4.68;;
79454;SDS011;68900;52.134;5.420;2024-03-17T04:09:54;13.20;;;5.00;;
79454;SDS011;68900;52.134;5.420;2024-03-17T04:12:37;7.50;;;3.92;;
79454;SDS011;68900;52.134;5.420;2024-03-17T04:15:19;12.45;;;4.90;;
79454;SDS011;68900;52.134;5.420;2024-03-17T04:18:00;9.88;;;4.57;;
79454;SDS011;68900;52.134;5.420;2024-03-17T04:20:41;10.13;;;4.53;;
79454;SDS011;68900;52.134;5.420;2024-03-17T04:23:23;9.82;;;4.95;;
79454;SDS011;68900;52.134;5.420;2024-03-17T04:26:06;8.98;;;4.57;;
79454;SDS011;68900;52.134;5.420;2024-03-17T04:28:48;13.02;;;4.60;;
79454;SDS011;68900;52.134;5.420;2024-03-17T04:31:29;10.65;;;5.00;;
79454;SDS011;68900;52.134;5.420;2024-03-17T04:34:13;14.65;;;4.55;;
79454;SDS011;68900;52.134;5.420;2024-03-17T04:36:53;10.88;;;4.70;;
79454;SDS011;68900;52.134;5.420;2024-03-17T04:39:19;9.70;;;4.78;;
79454;SDS011;68900;52.134;5.420;2024-03-17T04:41:45;12.07;;;4.53;;
79454;SDS011;68900;52.134;5.420;2024-03-17T04:44:13;12.70;;;5.40;;
79454;SDS011;68900;52.134;5.420;2024-03-17T04:46:43;9.45;;;4.78;;
79454;SDS011;68900;52.134;5.420;2024-03-17T04:49:09;11.13;;;4.60;;
79454;SDS011;68900;52.134;5.420;2024-03-17T04:52:46;11.98;;;4.65;;
79454;SDS011;68900;52.134;5.420;2024-03-17T04:55:27;11.38;;;4.75;;
79454;SDS011;68900;52.134;5.420;2024-03-17T05:01:43;9.77;;;4.90;;
79454;SDS011;68900;52.134;5.420;2024-03-17T05:07:35;12.70;;;5.07;;
79454;SDS011;68900;52.134;5.420;2024-03-17T05:10:01;9.60;;;4.80;;
79454;SDS011;68900;52.134;5.420;2024-03-17T05:23:03;10.43;;;5.40;;
79454;SDS011;68900;52.134;5.420;2024-03-17T05:26:04;11.82;;;5.72;;
79454;SDS011;68900;52.134;5.420;2024-03-17T05:28:30;11.48;;;5.28;;
79454;SDS011;68900;52.134;5.420;2024-03-17T05:33:56;11.43;;;5.05;;
79454;SDS011;68900;52.134;5.420;2024-03-17T05:36:21;11.57;;;4.78;;
79454;SDS011;68900;52.134;5.420;2024-03-17T05:39:05;11.55;;;5.60;;
79454;SDS011;68900;52.134;5.420;2024-03-17T05:41:31;13.98;;;6.38;;
79454;SDS011;68900;52.134;5.420;2024-03-17T05:43:57;12.45;;;5.72;;
79454;SDS011;68900;52.134;5.420;2024-03-17T05:46:25;11.50;;;6.10;;
79454;SDS011;68900;52.134;5.420;2024-03-17T05:48:54;11.95;;;6.15;;
79454;SDS011;68900;52.134;5.420;2024-03-17T05:51:25;12.57;;;5.65;;
79454;SDS011;68900;52.134;5.420;2024-03-17T05:54:03;10.20;;;5.43;;
79454;SDS011;68900;52.134;5.420;2024-03-17T05:56:29;14.55;;;5.65;;
79454;SDS011;68900;52.134;5.420;2024-03-17T05:59:28;11.05;;;5.20;;
79454;SDS011;68900;52.134;5.420;2024-03-17T06:04:22;10.88;;;5.20;;
79454;SDS011;68900;52.134;5.420;2024-03-17T06:12:37;14.80;;;5.35;;
79454;SDS011;68900;52.134;5.420;2024-03-17T06:15:02;11.70;;;5.57;;
79454;SDS011;68900;52.134;5.420;2024-03-17T06:17:28;10.00;;;5.03;;
79454;SDS011;68900;52.134;5.420;2024-03-17T06:20:14;11.77;;;5.10;;
79454;SDS011;68900;52.134;5.420;2024-03-17T06:22:58;12.68;;;6.13;;
79454;SDS011;68900;52.134;5.420;2024-03-17T06:25:24;13.32;;;5.60;;
79454;SDS011;68900;52.134;5.420;2024-03-17T06:31:15;11.98;;;5.70;;
79454;SDS011;68900;52.134;5.420;2024-03-17T06:33:40;10.23;;;5.43;;
79454;SDS011;68900;52.134;5.420;2024-03-17T06:36:06;10.35;;;5.50;;
79454;SDS011;68900;52.134;5.420;2024-03-17T06:38:34;12.50;;;5.35;;
79454;SDS011;68900;52.134;5.420;2024-03-17T06:41:02;10.13;;;5.57;;
79454;SDS011;68900;52.134;5.420;2024-03-17T06:43:32;10.27;;;5.30;;
79454;SDS011;68900;52.134;5.420;2024-03-17T06:46:01;10.93;;;5.57;;
79454;SDS011;68900;52.134;5.420;2024-03-17T06:48:32;12.40;;;6.38;;
79454;SDS011;68900;52.134;5.420;2024-03-17T06:51:16;13.20;;;5.93;;
79454;SDS011;68900;52.134;5.420;2024-03-17T06:53:42;10.57;;;5.35;;
79454;SDS011;68900;52.134;5.420;2024-03-17T06:56:15;12.75;;;6.00;;
79454;SDS011;68900;52.134;5.420;2024-03-17T06:58:58;12.15;;;5.82;;
79454;SDS011;68900;52.134;5.420;2024-03-17T07:01:57;11.20;;;5.55;;
79454;SDS011;68900;52.134;5.420;2024-03-17T07:04:24;12.35;;;5.72;;
79454;SDS011;68900;52.134;5.420;2024-03-17T07:06:57;12.70;;;6.20;;
79454;SDS011;68900;52.134;5.420;2024-03-17T07:11:53;10.20;;;5.93;;
79454;SDS011;68900;52.134;5.420;2024-03-17T07:14:22;11.68;;;5.80;;
79454;SDS011;68900;52.134;5.420;2024-03-17T07:16:48;11.55;;;6.07;;
79454;SDS011;68900;52.134;5.420;2024-03-17T07:19:51;13.60;;;5.47;;
79454;SDS011;68900;52.134;5.420;2024-03-17T07:24:50;11.43;;;5.15;;
79454;SDS011;68900;52.134;5.420;2024-03-17T07:27:20;11.60;;;5.30;;
79454;SDS011;68900;52.134;5.420;2024-03-17T07:29:53;11.68;;;5.70;;
79454;SDS011;68900;52.134;5.420;2024-03-17T07:32:35;11.13;;;5.90;;
79454;SDS011;68900;52.134;5.420;2024-03-17T07:35:07;11.45;;;5.70;;
79454;SDS011;68900;52.134;5.420;2024-03-17T07:37:35;12.15;;;5.60;;
79454;SDS011;68900;52.134;5.420;2024-03-17T07:40:04;14.38;;;5.70;;
79454;SDS011;68900;52.134;5.420;2024-03-17T07:42:40;14.38;;;4.93;;
79454;SDS011;68900;52.134;5.420;2024-03-17T07:45:10;11.30;;;5.70;;
79454;SDS011;68900;52.134;5.420;2024-03-17T07:47:40;11.02;;;5.25;;
79454;SDS011;68900;52.134;5.420;2024-03-17T07:50:15;11.50;;;5.78;;
79454;SDS011;68900;52.134;5.420;2024-03-17T07:52:49;11.30;;;6.07;;
79454;SDS011;68900;52.134;5.420;2024-03-17T07:55:22;11.57;;;5.18;;
79454;SDS011;68900;52.134;5.420;2024-03-17T07:57:52;9.23;;;5.00;;
79454;SDS011;68900;52.134;5.420;2024-03-17T08:00:18;8.98;;;5.15;;
79454;SDS011;68900;52.134;5.420;2024-03-17T08:03:02;10.73;;;5.07;;
79454;SDS011;68900;52.134;5.420;2024-03-17T08:05:28;8.95;;;5.07;;
79454;SDS011;68900;52.134;5.420;2024-03-17T08:07:58;11.05;;;5.60;;
79454;SDS011;68900;52.134;5.420;2024-03-17T08:10:44;8.77;;;4.55;;
79454;SDS011;68900;52.134;5.420;2024-03-17T08:13:15;10.60;;;4.97;;
79454;SDS011;68900;52.134;5.420;2024-03-17T08:15:44;9.30;;;4.65;;
79454;SDS011;68900;52.134;5.420;2024-03-17T08:18:18;9.05;;;4.95;;
79454;SDS011;68900;52.134;5.420;2024-03-17T08:20:47;9.77;;;4.60;;
79454;SDS011;68900;52.134;5.420;2024-03-17T08:23:22;9.93;;;4.70;;
79454;SDS011;68900;52.134;5.420;2024-03-17T08:26:04;10.25;;;5.20;;
79454;SDS011;68900;52.134;5.420;2024-03-17T08:28:29;12.02;;;5.32;;
79454;SDS011;68900;52.134;5.420;2024-03-17T08:31:02;9.57;;;4.97;;
79454;SDS011;68900;52.134;5.420;2024-03-17T08:33:28;10.50;;;5.28;;
79454;SDS011;68900;52.134;5.420;2024-03-17T08:36:02;12.45;;;5.20;;
79454;SDS011;68900;52.134;5.420;2024-03-17T08:38:38;12.60;;;5.53;;
79454;SDS011;68900;52.134;5.420;2024-03-17T08:41:08;12.75;;;5.43;;
79454;SDS011;68900;52.134;5.420;2024-03-17T08:44:08;11.23;;;5.28;;
79454;SDS011;68900;52.134;5.420;2024-03-17T09:02:15;10.32;;;4.93;;
79454;SDS011;68900;52.134;5.420;2024-03-17T09:41:32;8.85;;;4.68;;
79454;SDS011;68900;52.134;5.420;2024-03-17T09:44:03;9.93;;;4.95;;
79454;SDS011;68900;52.134;5.420;2024-03-17T09:46:37;11.35;;;4.68;;
79454;SDS011;68900;52.134;5.420;2024-03-17T09:49:18;13.43;;;5.50;;
79454;SDS011;68900;52.134;5.420;2024-03-17T09:51:44;12.32;;;5.15;;
79454;SDS011;68900;52.134;5.420;2024-03-17T09:54:19;9.48;;;5.25;;
79454;SDS011;68900;52.134;5.420;2024-03-17T09:56:47;9.82;;;5.07;;
79454;SDS011;68900;52.134;5.420;2024-03-17T09:59:28;10.18;;;4.82;;
79454;SDS011;68900;52.134;5.420;2024-03-17T10:04:47;9.68;;;4.78;;
79454;SDS011;68900;52.134;5.420;2024-03-17T10:07:19;10.88;;;5.32;;
79454;SDS011;68900;52.134;5.420;2024-03-17T10:10:15;9.52;;;4.95;;
79454;SDS011;68900;52.134;5.420;2024-03-17T10:12:49;11.05;;;4.97;;
79454;SDS011;68900;52.134;5.420;2024-03-17T10:15:18;12.45;;;4.90;;
79454;SDS011;68900;52.134;5.420;2024-03-17T10:17:51;12.48;;;5.10;;
79454;SDS011;68900;52.134;5.420;2024-03-17T10:20:25;11.25;;;5.05;;
79454;SDS011;68900;52.134;5.420;2024-03-17T10:23:07;12.45;;;4.90;;
79454;SDS011;68900;52.134;5.420;2024-03-17T10:41:18;9.88;;;4.57;;
79454;SDS011;68900;52.134;5.420;2024-03-17T10:43:45;9.10;;;4.55;;
79454;SDS011;68900;52.134;5.420;2024-03-17T11:40:41;8.57;;;4.50;;
79454;SDS011;68900;52.134;5.420;2024-03-17T11:43:07;9.63;;;4.45;;
79454;SDS011;68900;52.134;5.420;2024-03-17T11:50:15;8.95;;;3.92;;
79454;SDS011;68900;52.134;5.420;2024-03-17T11:52:41;7.45;;;4.40;;
79454;SDS011;68900;52.134;5.420;2024-03-17T11:55:14;8.30;;;3.97;;
79454;SDS011;68900;52.134;5.420;2024-03-17T11:57:41;11.60;;;4.60;;
79454;SDS011;68900;52.134;5.420;2024-03-17T12:00:23;10.07;;;4.45;;
79454;SDS011;68900;52.134;5.420;2024-03-17T12:02:54;9.73;;;4.80;;
79454;SDS011;68900;52.134;5.420;2024-03-17T12:05:35;9.98;;;4.70;;
79454;SDS011;68900;52.134;5.420;2024-03-17T12:08:22;10.38;;;4.85;;
79454;SDS011;68900;52.134;5.420;2024-03-17T12:10:47;9.57;;;4.18;;
79454;SDS011;68900;52.134;5.420;2024-03-17T12:13:33;11.45;;;4.78;;
79454;SDS011;68900;52.134;5.420;2024-03-17T12:16:15;7.78;;;4.28;;
79454;SDS011;68900;52.134;5.420;2024-03-17T12:19:05;11.00;;;4.72;;
79454;SDS011;68900;52.134;5.420;2024-03-17T12:21:51;10.05;;;4.50;;
79454;SDS011;68900;52.134;5.420;2024-03-17T12:24:35;10.10;;;4.53;;
79454;SDS011;68900;52.134;5.420;2024-03-17T12:27:22;11.30;;;5.03;;
79454;SDS011;68900;52.134;5.420;2024-03-17T12:29:56;11.20;;;4.93;;
79454;SDS011;68900;52.134;5.420;2024-03-17T12:32:23;7.93;;;4.25;;
79454;SDS011;68900;52.134;5.420;2024-03-17T12:49:34;8.20;;;4.07;;
79454;SDS011;68900;52.134;5.420;2024-03-17T13:22:30;9.48;;;4.90;;
79454;SDS011;68900;52.134;5.420;2024-03-17T13:24:59;9.75;;;4.55;;
79454;SDS011;68900;52.134;5.420;2024-03-17T13:27:25;9.55;;;4.68;;
79454;SDS011;68900;52.134;5.420;2024-03-17T13:30:02;8.57;;;4.28;;
79454;SDS011;68900;52.134;5.420;2024-03-17T13:32:29;8.35;;;4.35;;
79454;SDS011;68900;52.134;5.420;2024-03-17T13:34:55;8.82;;;4.45;;
79454;SDS011;68900;52.134;5.420;2024-03-17T13:37:21;9.15;;;4.50;;
79454;SDS011;68900;52.134;5.420;2024-03-17T13:39:49;8.52;;;4.47;;
79454;SDS011;68900;52.134;5.420;2024-03-17T13:42:22;9.70;;;4.28;;
79454;SDS011;68900;52.134;5.420;2024-03-17T13:45:00;13.60;;;5.30;;
79454;SDS011;68900;52.134;5.420;2024-03-17T13:47:29;12.27;;;5.25;;
79454;SDS011;68900;52.134;5.420;2024-03-17T13:49:55;10.57;;;4.57;;
79454;SDS011;68900;52.134;5.420;2024-03-17T13:52:21;13.18;;;5.20;;
79454;SDS011;68900;52.134;5.420;2024-03-17T13:54:47;10.05;;;4.50;;
79454;SDS011;68900;52.134;5.420;2024-03-17T13:57:46;11.43;;;5.13;;
79454;SDS011;68900;52.134;5.420;2024-03-17T14:00:23;10.10;;;4.32;;
79454;SDS011;68900;52.134;5.420;2024-03-17T14:02:51;9.98;;;4.72;;
79454;SDS011;68900;52.134;5.420;2024-03-17T14:08:05;9.45;;;5.07;;
79454;SDS011;68900;52.134;5.420;2024-03-17T14:10:31;8.82;;;4.18;;
79454;SDS011;68900;52.134;5.420;2024-03-17T14:12:57;9.52;;;4.40;;
79454;SDS011;68900;52.134;5.420;2024-03-17T14:15:30;9.32;;;4.47;;
79454;SDS011;68900;52.134;5.420;2024-03-17T14:18:00;10.70;;;4.75;;
79454;SDS011;68900;52.134;5.420;2024-03-17T14:20:26;9.82;;;4.60;;
79454;SDS011;68900;52.134;5.420;2024-03-17T14:22:55;9.25;;;4.63;;
79454;SDS011;68900;52.134;5.420;2024-03-17T14:25:23;9.27;;;5.15;;
79454;SDS011;68900;52.134;5.420;2024-03-17T14:27:50;11.80;;;5.05;;
79454;SDS011;68900;52.134;5.420;2024-03-17T14:31:06;11.65;;;4.63;;
79454;SDS011;68900;52.134;5.420;2024-03-17T14:33:31;8.85;;;4.90;;
79454;SDS011;68900;52.134;5.420;2024-03-17T14:36:01;9.68;;;4.97;;
79454;SDS011;68900;52.134;5.420;2024-03-17T14:38:31;9.88;;;4.68;;
79454;SDS011;68900;52.134;5.420;2024-03-17T14:41:06;9.98;;;5.00;;
79454;SDS011;68900;52.134;5.420;2024-03-17T14:43:32;9.10;;;4.85;;
79454;SDS011;68900;52.134;5.420;2024-03-17T14:46:09;8.93;;;4.55;;
79454;SDS011;68900;52.134;5.420;2024-03-17T14:48:45;12.23;;;5.20;;
79454;SDS011;68900;52.134;5.420;2024-03-17T15:36:10;11.18;;;4.32;;
79454;SDS011;68900;52.134;5.420;2024-03-17T15:38:36;7.72;;;4.07;;
79454;SDS011;68900;52.134;5.420;2024-03-17T15:41:12;10.43;;;4.22;;
79454;SDS011;68900;52.134;5.420;2024-03-17T15:43:47;9.35;;;4.15;;
79454;SDS011;68900;52.134;5.420;2024-03-17T15:46:20;9.43;;;4.50;;
79454;SDS011;68900;52.134;5.420;2024-03-17T15:48:53;11.00;;;4.60;;
79454;SDS011;68900;52.134;5.420;2024-03-17T15:51:26;7.57;;;4.22;;
79454;SDS011;68900;52.134;5.420;2024-03-17T16:15:55;10.23;;;4.68;;
79454;SDS011;68900;52.134;5.420;2024-03-17T16:39:54;8.93;;;4.45;;
79454;SDS011;68900;52.134;5.420;2024-03-17T17:23:57;10.60;;;4.93;;
79454;SDS011;68900;52.134;5.420;2024-03-17T17:26:26;8.43;;;5.10;;
79454;SDS011;68900;52.134;5.420;2024-03-17T17:28:56;9.32;;;5.25;;
79454;SDS011;68900;52.134;5.420;2024-03-17T17:31:24;10.60;;;4.95;;
79454;SDS011;68900;52.134;5.420;2024-03-17T17:51:28;11.68;;;5.47;;
79454;SDS011;68900;52.134;5.420;2024-03-17T18:08:15;10.05;;;5.18;;
79454;SDS011;68900;52.134;5.420;2024-03-17T18:10:40;12.70;;;5.47;;
79454;SDS011;68900;52.134;5.420;2024-03-17T18:19:09;11.50;;;5.43;;
79454;SDS011;68900;52.134;5.420;2024-03-17T18:21:55;12.80;;;5.45;;
79454;SDS011;68900;52.134;5.420;2024-03-17T18:24:36;11.90;;;6.00;;
79454;SDS011;68900;52.134;5.420;2024-03-17T18:30:02;11.90;;;5.35;;
79454;SDS011;68900;52.134;5.420;2024-03-17T18:34:56;12.13;;;5.65;;
79454;SDS011;68900;52.134;5.420;2024-03-17T18:37:22;12.50;;;5.85;;
79454;SDS011;68900;52.134;5.420;2024-03-17T18:39:51;12.75;;;5.75;;
79454;SDS011;68900;52.134;5.420;2024-03-17T18:42:16;13.15;;;6.57;;
79454;SDS011;68900;52.134;5.420;2024-03-17T18:44:42;15.00;;;6.82;;
79454;SDS011;68900;52.134;5.420;2024-03-17T18:47:08;14.25;;;6.57;;
79454;SDS011;68900;52.134;5.420;2024-03-17T18:49:34;11.10;;;5.88;;
79454;SDS011;68900;52.134;5.420;2024-03-17T18:51:59;11.35;;;6.22;;
79454;SDS011;68900;52.134;5.420;2024-03-17T18:54:25;12.15;;;6.28;;
79454;SDS011;68900;52.134;5.420;2024-03-17T18:56:51;12.00;;;6.03;;
79454;SDS011;68900;52.134;5.420;2024-03-17T18:59:17;13.57;;;6.90;;
79454;SDS011;68900;52.134;5.420;2024-03-17T19:01:44;12.15;;;6.80;;
79454;SDS011;68900;52.134;5.420;2024-03-17T19:04:11;13.25;;;6.35;;
79454;SDS011;68900;52.134;5.420;2024-03-17T19:06:37;12.45;;;6.32;;
79454;SDS011;68900;52.134;5.420;2024-03-17T19:09:02;11.05;;;5.75;;
79454;SDS011;68900;52.134;5.420;2024-03-17T19:11:36;12.35;;;6.60;;
79454;SDS011;68900;52.134;5.420;2024-03-17T19:14:01;13.23;;;6.68;;
79454;SDS011;68900;52.134;5.420;2024-03-17T19:16:27;12.80;;;6.45;;
79454;SDS011;68900;52.134;5.420;2024-03-17T19:18:52;14.05;;;6.97;;
79454;SDS011;68900;52.134;5.420;2024-03-17T19:21:18;14.80;;;6.43;;
79454;SDS011;68900;52.134;5.420;2024-03-17T19:23:44;12.60;;;6.43;;
79454;SDS011;68900;52.134;5.420;2024-03-17T19:26:11;10.88;;;6.05;;
79454;SDS011;68900;52.134;5.420;2024-03-17T19:28:41;12.15;;;6.05;;
79454;SDS011;68900;52.134;5.420;2024-03-17T19:31:08;11.95;;;5.80;;
79454;SDS011;68900;52.134;5.420;2024-03-17T19:33:34;12.50;;;6.20;;
79454;SDS011;68900;52.134;5.420;2024-03-17T19:36:00;12.20;;;5.95;;
79454;SDS011;68900;52.134;5.420;2024-03-17T19:38:30;12.13;;;5.72;;
79454;SDS011;68900;52.134;5.420;2024-03-17T19:40:58;14.65;;;7.30;;
79454;SDS011;68900;52.134;5.420;2024-03-17T19:43:25;13.63;;;6.40;;
79454;SDS011;68900;52.134;5.420;2024-03-17T19:46:05;12.07;;;6.07;;
79454;SDS011;68900;52.134;5.420;2024-03-17T19:48:36;13.52;;;6.32;;
79454;SDS011;68900;52.134;5.420;2024-03-17T19:51:06;13.38;;;6.75;;
79454;SDS011;68900;52.134;5.420;2024-03-17T19:53:43;13.88;;;6.70;;
79454;SDS011;68900;52.134;5.420;2024-03-17T19:56:11;12.68;;;6.47;;
79454;SDS011;68900;52.134;5.420;2024-03-17T19:58:48;16.50;;;6.45;;
79454;SDS011;68900;52.134;5.420;2024-03-17T20:01:15;12.55;;;6.25;;
79454;SDS011;68900;52.134;5.420;2024-03-17T20:03:41;14.45;;;6.80;;
79454;SDS011;68900;52.134;5.420;2024-03-17T20:06:12;12.95;;;6.53;;
79454;SDS011;68900;52.134;5.420;2024-03-17T20:08:43;13.27;;;6.43;;
79454;SDS011;68900;52.134;5.420;2024-03-17T20:11:09;15.82;;;6.70;;
79454;SDS011;68900;52.134;5.420;2024-03-17T20:13:35;12.90;;;6.47;;
79454;SDS011;68900;52.134;5.420;2024-03-17T20:16:00;16.33;;;7.88;;
79454;SDS011;68900;52.134;5.420;2024-03-17T20:18:26;15.30;;;7.45;;
79454;SDS011;68900;52.134;5.420;2024-03-17T20:20:52;17.05;;;7.40;;
79454;SDS011;68900;52.134;5.420;2024-03-17T20:23:21;14.43;;;7.65;;
79454;SDS011;68900;52.134;5.420;2024-03-17T20:25:47;16.75;;;7.95;;
79454;SDS011;68900;52.134;5.420;2024-03-17T20:28:12;18.40;;;9.07;;
79454;SDS011;68900;52.134;5.420;2024-03-17T20:30:39;15.10;;;7.32;;
79454;SDS011;68900;52.134;5.420;2024-03-17T20:33:04;16.40;;;8.40;;
79454;SDS011;68900;52.134;5.420;2024-03-17T20:35:30;16.90;;;7.43;;
79454;SDS011;68900;52.134;5.420;2024-03-17T20:37:56;14.15;;;7.47;;
79454;SDS011;68900;52.134;5.420;2024-03-17T20:40:21;13.15;;;6.63;;
79454;SDS011;68900;52.134;5.420;2024-03-17T20:42:51;14.32;;;6.90;;
79454;SDS011;68900;52.134;5.420;2024-03-17T20:45:18;15.20;;;6.80;;
79454;SDS011;68900;52.134;5.420;2024-03-17T20:47:48;14.80;;;7.13;;
79454;SDS011;68900;52.134;5.420;2024-03-17T20:50:17;14.15;;;7.05;;
79454;SDS011;68900;52.134;5.420;2024-03-17T20:52:45;13.73;;;6.68;;
79454;SDS011;68900;52.134;5.420;2024-03-17T20:55:11;12.02;;;6.43;;
79454;SDS011;68900;52.134;5.420;2024-03-17T20:57:38;13.25;;;6.93;;
79454;SDS011;68900;52.134;5.420;2024-03-17T21:00:05;15.15;;;6.88;;
79454;SDS011;68900;52.134;5.420;2024-03-17T21:02:52;14.32;;;7.28;;
79454;SDS011;68900;52.134;5.420;2024-03-17T21:05:20;14.73;;;7.35;;
79454;SDS011;68900;52.134;5.420;2024-03-17T21:07:49;13.82;;;7.03;;
79454;SDS011;68900;52.134;5.420;2024-03-17T21:10:15;13.63;;;7.22;;
79454;SDS011;68900;52.134;5.420;2024-03-17T21:12:40;13.85;;;6.90;;
79454;SDS011;68900;52.134;5.420;2024-03-17T21:15:07;15.07;;;6.85;;
79454;SDS011;68900;52.134;5.420;2024-03-17T21:17:36;12.93;;;6.88;;
79454;SDS011;68900;52.134;5.420;2024-03-17T21:20:03;12.63;;;6.70;;
79454;SDS011;68900;52.134;5.420;2024-03-17T21:24:57;11.20;;;5.95;;
79454;SDS011;68900;52.134;5.420;2024-03-17T21:27:23;14.40;;;6.95;;
79454;SDS011;68900;52.134;5.420;2024-03-17T21:29:50;13.48;;;6.63;;
79454;SDS011;68900;52.134;5.420;2024-03-17T21:32:17;16.55;;;7.60;;
79454;SDS011;68900;52.134;5.420;2024-03-17T21:34:43;17.80;;;7.38;;
79454;SDS011;68900;52.134;5.420;2024-03-17T21:37:11;13.55;;;6.90;;
79454;SDS011;68900;52.134;5.420;2024-03-17T21:39:37;20.48;;;7.43;;
79454;SDS011;68900;52.134;5.420;2024-03-17T21:42:03;16.00;;;7.63;;
79454;SDS011;68900;52.134;5.420;2024-03-17T21:44:29;13.55;;;7.38;;
79454;SDS011;68900;52.134;5.420;2024-03-17T21:46:55;14.77;;;7.43;;
79454;SDS011;68900;52.134;5.420;2024-03-17T21:49:21;13.88;;;6.97;;
79454;SDS011;68900;52.134;5.420;2024-03-17T21:51:47;13.13;;;7.15;;
79454;SDS011;68900;52.134;5.420;2024-03-17T21:54:13;14.40;;;7.25;;
79454;SDS011;68900;52.134;5.420;2024-03-17T21:56:38;13.82;;;7.05;;
79454;SDS011;68900;52.134;5.420;2024-03-17T21:59:04;13.25;;;7.22;;
79454;SDS011;68900;52.134;5.420;2024-03-17T22:01:31;16.15;;;7.40;;
79454;SDS011;68900;52.134;5.420;2024-03-17T22:03:58;13.63;;;7.43;;
79454;SDS011;68900;52.134;5.420;2024-03-17T22:06:24;13.98;;;7.13;;
79454;SDS011;68900;52.134;5.420;2024-03-17T22:08:56;18.58;;;7.75;;
79454;SDS011;68900;52.134;5.420;2024-03-17T22:11:22;14.60;;;7.22;;
79454;SDS011;68900;52.134;5.420;2024-03-17T22:13:49;12.57;;;6.97;;
79454;SDS011;68900;52.134;5.420;2024-03-17T22:16:14;12.75;;;6.75;;
79454;SDS011;68900;52.134;5.420;2024-03-17T22:18:40;12.27;;;6.60;;
79454;SDS011;68900;52.134;5.420;2024-03-17T22:21:08;12.27;;;6.75;;
79454;SDS011;68900;52.134;5.420;2024-03-17T22:23:34;11.93;;;6.30;;